Time;durP1;ratioP1;P1;durP2;ratioP2;P2;SDS_P1;SDS_P2;PMS_P1;PMS_P2;Temp;Humidity;BMP_temperature;BMP_pressure;BME280_temperature;BME280_humidity;BME280_pressure;Samples;Min_cycle;Max_cycle;Signal;HPM_P1;HPM_P2
2022/03/19 00:00:45;;;;;;;10.25;1.75;;;;;;;;;;5095092;28;20519;-67
2022/03/19 00:03:11;;;;;;;6.13;1.80;;;;;;;;;;5078021;28;20028;-69
2022/03/19 00:05:37;;;;;;;14.10;1.48;;;;;;;;;;5056877;28;20399;-67
2022/03/19 00:08:03;;;;;;;9.73;1.80;;;;;;;;;;5074669;28;20040;-67
2022/03/19 00:10:29;;;;;;;13.52;1.55;;;;;;;;;;5074764;28;20027;-67
2022/03/19 00:12:55;;;;;;;7.30;1.50;;;;;;;;;;5075706;28;20028;-67
2022/03/19 00:15:21;;;;;;;8.95;1.30;;;;;;;;;;5087494;28;20047;-67
2022/03/19 00:17:47;;;;;;;5.30;1.63;;;;;;;;;;5093936;28;20613;-67
2022/03/19 00:20:14;;;;;;;5.68;1.58;;;;;;;;;;5094990;28;20020;-67
2022/03/19 00:22:40;;;;;;;8.07;1.92;;;;;;;;;;5093583;28;20091;-67
2022/03/19 00:25:08;;;;;;;9.00;1.42;;;;;;;;;;5094777;28;20471;-67
2022/03/19 00:27:34;;;;;;;8.82;1.65;;;;;;;;;;5094695;28;20050;-67
2022/03/19 00:30:00;;;;;;;10.50;1.60;;;;;;;;;;5094663;28;20399;-67
2022/03/19 00:32:26;;;;;;;5.93;1.48;;;;;;;;;;5094499;28;20046;-67
2022/03/19 00:34:52;;;;;;;12.55;2.22;;;;;;;;;;5094443;28;20070;-67
2022/03/19 00:37:18;;;;;;;4.93;1.58;;;;;;;;;;5094421;28;20030;-67
2022/03/19 00:39:44;;;;;;;8.25;1.75;;;;;;;;;;5094462;28;20056;-67
2022/03/19 00:42:10;;;;;;;5.78;1.60;;;;;;;;;;5092916;28;20031;-67
2022/03/19 00:44:36;;;;;;;6.70;1.48;;;;;;;;;;5085649;28;20024;-67
2022/03/19 00:47:02;;;;;;;7.38;1.58;;;;;;;;;;5094215;28;20092;-67
2022/03/19 00:49:28;;;;;;;6.03;1.48;;;;;;;;;;5094182;28;20494;-66
2022/03/19 00:51:54;;;;;;;5.03;1.50;;;;;;;;;;5093947;28;20028;-67
2022/03/19 00:54:20;;;;;;;4.13;1.42;;;;;;;;;;5094073;28;20409;-67
2022/03/19 00:56:47;;;;;;;4.63;1.27;;;;;;;;;;5093995;28;20035;-67
2022/03/19 00:59:13;;;;;;;8.40;1.50;;;;;;;;;;5093919;28;20028;-67
2022/03/19 01:01:39;;;;;;;4.15;1.27;;;;;;;;;;5089391;28;20031;-67
2022/03/19 01:04:05;;;;;;;6.13;1.73;;;;;;;;;;5073689;28;20024;-66
2022/03/19 01:06:31;;;;;;;5.43;1.20;;;;;;;;;;5073805;28;20028;-65
2022/03/19 01:08:57;;;;;;;7.68;1.23;;;;;;;;;;5073537;28;20523;-66
2022/03/19 01:11:23;;;;;;;4.43;1.33;;;;;;;;;;5073611;28;20029;-67
2022/03/19 01:13:58;;;;;;;3.88;1.38;;;;;;;;;;5076883;28;20040;-66
2022/03/19 01:16:27;;;;;;;5.93;1.80;;;;;;;;;;5085706;28;20024;-66
2022/03/19 01:18:53;;;;;;;4.25;1.10;;;;;;;;;;5093792;28;20165;-66
2022/03/19 01:21:19;;;;;;;9.98;1.30;;;;;;;;;;5093368;28;20099;-67
2022/03/19 01:23:45;;;;;;;5.80;1.63;;;;;;;;;;5093380;28;20059;-66
2022/03/19 01:26:11;;;;;;;2.80;1.20;;;;;;;;;;5075287;28;20020;-66
2022/03/19 01:28:38;;;;;;;7.10;1.65;;;;;;;;;;5093336;28;20497;-67
2022/03/19 01:31:04;;;;;;;5.40;1.75;;;;;;;;;;5093315;28;20474;-67
2022/03/19 01:33:30;;;;;;;4.97;1.52;;;;;;;;;;5093399;28;20031;-66
2022/03/19 01:35:56;;;;;;;4.20;1.50;;;;;;;;;;5093506;28;20020;-66
2022/03/19 01:38:22;;;;;;;4.88;1.48;;;;;;;;;;5093198;28;20408;-67
2022/03/19 01:40:48;;;;;;;7.78;1.70;;;;;;;;;;5092951;28;20103;-67
2022/03/19 01:43:14;;;;;;;6.93;1.50;;;;;;;;;;5092445;28;20153;-67
2022/03/19 01:45:40;;;;;;;5.63;1.52;;;;;;;;;;5084581;28;20365;-67
2022/03/19 01:48:06;;;;;;;5.93;1.40;;;;;;;;;;5093411;28;20024;-66
2022/03/19 01:50:32;;;;;;;4.95;1.42;;;;;;;;;;5093439;28;20020;-67
2022/03/19 01:52:58;;;;;;;3.25;1.50;;;;;;;;;;5092282;28;20047;-67
2022/03/19 01:55:25;;;;;;;3.58;1.50;;;;;;;;;;5074925;28;20012;-67
2022/03/19 01:57:52;;;;;;;3.80;1.40;;;;;;;;;;5093014;28;20032;-67
2022/03/19 02:00:21;;;;;;;4.55;1.50;;;;;;;;;;5092490;28;20020;-67
2022/03/19 02:02:48;;;;;;;2.92;1.25;;;;;;;;;;5078824;28;20020;-68
2022/03/19 02:05:21;;;;;;;8.40;1.80;;;;;;;;;;5072139;28;20403;-67
2022/03/19 02:07:48;;;;;;;4.18;1.30;;;;;;;;;;5072433;28;20102;-68
2022/03/19 02:10:15;;;;;;;4.53;1.30;;;;;;;;;;5054654;28;20032;-68
2022/03/19 02:12:41;;;;;;;4.15;1.40;;;;;;;;;;5074811;28;20027;-66
2022/03/19 02:15:09;;;;;;;5.25;1.48;;;;;;;;;;5087424;28;20337;-67
2022/03/19 02:17:35;;;;;;;2.83;1.08;;;;;;;;;;5072350;28;20082;-66
2022/03/19 02:20:02;;;;;;;4.35;1.35;;;;;;;;;;5072346;28;20034;-67
2022/03/19 02:22:28;;;;;;;3.20;1.25;;;;;;;;;;5072100;28;20049;-66
2022/03/19 02:27:40;;;;;;;2.97;1.30;;;;;;;;;;5072542;28;20668;-66
2022/03/19 02:30:07;;;;;;;2.38;1.20;;;;;;;;;;5068324;28;20722;-66
2022/03/19 02:32:34;;;;;;;3.38;1.38;;;;;;;;;;5074444;28;20017;-66
2022/03/19 02:35:00;;;;;;;4.88;1.17;;;;;;;;;;5091618;28;20037;-66
2022/03/19 02:37:26;;;;;;;3.05;1.17;;;;;;;;;;5092649;28;20085;-66
2022/03/19 02:39:51;;;;;;;5.50;1.20;;;;;;;;;;5074227;28;20421;-66
2022/03/19 02:42:19;;;;;;;3.35;1.00;;;;;;;;;;5092252;28;20063;-66
2022/03/19 02:44:45;;;;;;;5.93;1.42;;;;;;;;;;5092126;28;20110;-66
2022/03/19 02:47:12;;;;;;;3.60;1.50;;;;;;;;;;5066597;28;20098;-67
2022/03/19 02:49:39;;;;;;;6.68;1.48;;;;;;;;;;5090299;28;20058;-67
2022/03/19 02:52:05;;;;;;;7.15;1.48;;;;;;;;;;5073963;28;20064;-66
2022/03/19 02:54:32;;;;;;;3.22;1.10;;;;;;;;;;5091899;28;20035;-66
2022/03/19 02:56:59;;;;;;;7.32;1.10;;;;;;;;;;5092579;28;20020;-67
2022/03/19 02:59:24;;;;;;;2.13;1.15;;;;;;;;;;5092050;28;20028;-67
2022/03/19 03:01:52;;;;;;;4.03;1.30;;;;;;;;;;5067727;28;20020;-67
2022/03/19 03:04:18;;;;;;;6.72;1.20;;;;;;;;;;5072058;28;20017;-67
2022/03/19 03:06:45;;;;;;;6.57;1.48;;;;;;;;;;5071906;28;20024;-67
2022/03/19 03:09:11;;;;;;;4.15;1.15;;;;;;;;;;5053852;28;20648;-67
2022/03/19 03:11:38;;;;;;;4.30;1.23;;;;;;;;;;5071743;28;20024;-68
2022/03/19 03:14:11;;;;;;;2.08;1.10;;;;;;;;;;5053721;28;20037;-68
2022/03/19 03:16:37;;;;;;;5.18;1.20;;;;;;;;;;5071691;28;20024;-68
2022/03/19 03:19:04;;;;;;;3.38;1.20;;;;;;;;;;5091571;28;20449;-68
2022/03/19 03:21:30;;;;;;;3.10;1.20;;;;;;;;;;5074786;28;20111;-67
2022/03/19 03:23:56;;;;;;;1.67;1.05;;;;;;;;;;5071454;28;20156;-67
2022/03/19 03:26:22;;;;;;;3.35;1.20;;;;;;;;;;5053896;28;20668;-67
2022/03/19 03:28:48;;;;;;;5.20;1.10;;;;;;;;;;5071667;28;20400;-67
2022/03/19 03:31:14;;;;;;;2.22;1.02;;;;;;;;;;5071434;28;20081;-67
2022/03/19 03:33:41;;;;;;;3.78;1.30;;;;;;;;;;5079135;28;20606;-67
2022/03/19 03:36:07;;;;;;;5.38;1.40;;;;;;;;;;5083222;28;20047;-67
2022/03/19 03:38:34;;;;;;;6.53;1.30;;;;;;;;;;5092058;28;20028;-67
2022/03/19 03:41:00;;;;;;;4.05;1.23;;;;;;;;;;5091567;28;20447;-67
2022/03/19 03:43:26;;;;;;;1.88;1.00;;;;;;;;;;5091645;28;20161;-67
2022/03/19 03:45:52;;;;;;;6.47;1.20;;;;;;;;;;5092069;28;20028;-67
2022/03/19 03:48:18;;;;;;;3.97;1.10;;;;;;;;;;5091658;28;20024;-67
2022/03/19 03:50:44;;;;;;;3.92;1.05;;;;;;;;;;5064304;28;20079;-67
2022/03/19 03:53:10;;;;;;;2.58;1.00;;;;;;;;;;5076642;28;20033;-66
2022/03/19 03:55:38;;;;;;;3.10;1.23;;;;;;;;;;5071307;28;20029;-66
2022/03/19 03:58:04;;;;;;;4.28;1.80;;;;;;;;;;5072357;28;20032;-66
2022/03/19 04:00:34;;;;;;;3.72;1.00;;;;;;;;;;5074597;28;20495;-67
2022/03/19 04:03:00;;;;;;;4.32;1.30;;;;;;;;;;5071886;28;20469;-67
2022/03/19 04:05:26;;;;;;;4.10;1.30;;;;;;;;;;5095256;28;20028;-66
2022/03/19 04:07:52;;;;;;;4.57;1.20;;;;;;;;;;5095062;28;20173;-66
2022/03/19 04:10:18;;;;;;;4.57;1.00;;;;;;;;;;5094993;28;20673;-66
2022/03/19 04:12:44;;;;;;;4.57;1.20;;;;;;;;;;5094759;28;20035;-66
2022/03/19 04:15:10;;;;;;;2.55;1.10;;;;;;;;;;5076660;28;20421;-67
2022/03/19 04:17:37;;;;;;;2.35;1.20;;;;;;;;;;5094835;28;20032;-66
2022/03/19 04:20:06;;;;;;;2.50;1.13;;;;;;;;;;5094599;28;20483;-66
2022/03/19 04:22:36;;;;;;;3.00;1.15;;;;;;;;;;5094618;28;20059;-66
2022/03/19 04:25:02;;;;;;;3.35;1.30;;;;;;;;;;5088763;28;20028;-67
2022/03/19 04:27:28;;;;;;;2.85;1.20;;;;;;;;;;5074574;28;20468;-66
2022/03/19 04:29:54;;;;;;;2.60;1.02;;;;;;;;;;5056553;28;20033;-66
2022/03/19 04:32:20;;;;;;;5.10;1.00;;;;;;;;;;5074167;28;20470;-66
2022/03/19 04:34:46;;;;;;;3.80;1.20;;;;;;;;;;5091980;28;20364;-67
2022/03/19 04:37:12;;;;;;;5.45;1.42;;;;;;;;;;5094639;28;20023;-67
2022/03/19 04:39:38;;;;;;;4.13;1.33;;;;;;;;;;5093375;28;20414;-67
2022/03/19 04:42:04;;;;;;;5.25;1.40;;;;;;;;;;5089104;28;20468;-67
2022/03/19 04:44:30;;;;;;;4.57;1.08;;;;;;;;;;5083436;28;20070;-67
2022/03/19 04:46:56;;;;;;;3.65;1.40;;;;;;;;;;5094246;28;20023;-66
2022/03/19 04:49:22;;;;;;;3.70;1.23;;;;;;;;;;5093505;28;20040;-67
2022/03/19 04:51:49;;;;;;;5.45;1.55;;;;;;;;;;5074372;28;20039;-67
2022/03/19 04:54:16;;;;;;;2.25;1.27;;;;;;;;;;5083232;28;20131;-68
2022/03/19 04:56:42;;;;;;;6.72;1.40;;;;;;;;;;5092877;28;20024;-67
2022/03/19 04:59:11;;;;;;;2.90;1.20;;;;;;;;;;5087735;28;20103;-67
2022/03/19 05:01:39;;;;;;;5.38;1.17;;;;;;;;;;5087109;28;20364;-66
2022/03/19 05:04:06;;;;;;;3.58;1.20;;;;;;;;;;5088052;28;20111;-67
2022/03/19 05:06:32;;;;;;;3.00;1.48;;;;;;;;;;5076725;28;20025;-66
2022/03/19 05:11:43;;;;;;;4.53;1.40;;;;;;;;;;5092300;28;20395;-67
2022/03/19 05:14:09;;;;;;;4.18;1.27;;;;;;;;;;5092834;28;20398;-67
2022/03/19 05:16:36;;;;;;;1.58;0.82;;;;;;;;;;5075830;28;20364;-67
2022/03/19 05:19:02;;;;;;;3.65;1.27;;;;;;;;;;5087205;28;20459;-67
2022/03/19 05:21:28;;;;;;;4.40;1.48;;;;;;;;;;5076659;28;20036;-67
2022/03/19 05:23:54;;;;;;;4.53;1.38;;;;;;;;;;5085614;28;20400;-67
2022/03/19 05:26:21;;;;;;;4.13;1.30;;;;;;;;;;5077738;28;20027;-67
2022/03/19 05:28:47;;;;;;;2.92;1.23;;;;;;;;;;5064407;28;20439;-66
2022/03/19 05:31:13;;;;;;;3.58;1.20;;;;;;;;;;5087482;28;20451;-66
2022/03/19 05:36:24;;;;;;;4.95;1.70;;;;;;;;;;5082544;28;20042;-67
2022/03/19 05:38:50;;;;;;;3.03;1.33;;;;;;;;;;5084515;28;20058;-67
2022/03/19 05:41:16;;;;;;;7.10;1.35;;;;;;;;;;5082125;28;20025;-66
2022/03/19 05:43:43;;;;;;;4.38;1.30;;;;;;;;;;5063528;28;20031;-67
2022/03/19 05:46:09;;;;;;;8.95;1.42;;;;;;;;;;5075378;28;20095;-66
2022/03/19 05:48:35;;;;;;;4.13;1.48;;;;;;;;;;5063781;28;20123;-66
2022/03/19 05:51:01;;;;;;;9.15;1.55;;;;;;;;;;5083572;28;20111;-67
2022/03/19 05:53:27;;;;;;;3.88;1.30;;;;;;;;;;5082118;28;20394;-66
2022/03/19 05:55:54;;;;;;;3.15;1.35;;;;;;;;;;5082599;28;20498;-69
2022/03/19 05:58:20;;;;;;;4.90;1.50;;;;;;;;;;5078683;28;20064;-66
2022/03/19 06:00:46;;;;;;;6.85;1.60;;;;;;;;;;5080792;28;20060;-68
2022/03/19 06:03:12;;;;;;;5.95;1.50;;;;;;;;;;5082894;28;20056;-67
2022/03/19 06:05:38;;;;;;;8.43;1.92;;;;;;;;;;5075684;28;20063;-72
2022/03/19 06:08:04;;;;;;;21.15;1.95;;;;;;;;;;5079905;28;20089;-73
2022/03/19 06:10:30;;;;;;;8.95;1.98;;;;;;;;;;5061010;28;20696;-74
2022/03/19 06:12:56;;;;;;;11.20;2.13;;;;;;;;;;5073434;28;20067;-73
2022/03/19 06:15:22;;;;;;;10.48;1.98;;;;;;;;;;5075508;28;20032;-72
2022/03/19 06:17:48;;;;;;;10.77;2.70;;;;;;;;;;5066692;28;20028;-72
2022/03/19 06:20:14;;;;;;;12.57;2.47;;;;;;;;;;5084928;28;20475;-74
2022/03/19 06:22:41;;;;;;;13.88;2.80;;;;;;;;;;5081641;28;20132;-72
2022/03/19 06:25:07;;;;;;;6.22;2.40;;;;;;;;;;5085471;28;20059;-72
2022/03/19 06:27:33;;;;;;;5.80;2.83;;;;;;;;;;5074796;28;20024;-72
2022/03/19 06:29:59;;;;;;;7.07;2.90;;;;;;;;;;5080650;28;20040;-73
2022/03/19 06:32:25;;;;;;;12.27;3.10;;;;;;;;;;5072843;28;20021;-73
2022/03/19 06:34:51;;;;;;;14.68;3.30;;;;;;;;;;5090545;28;20035;-74
2022/03/19 06:37:19;;;;;;;14.15;3.55;;;;;;;;;;5091796;28;20483;-73
2022/03/19 06:39:46;;;;;;;12.10;3.42;;;;;;;;;;5074278;28;20021;-73
2022/03/19 06:42:11;;;;;;;11.45;3.03;;;;;;;;;;5077168;28;20040;-72
2022/03/19 06:44:38;;;;;;;14.30;3.72;;;;;;;;;;5060949;28;20028;-72
2022/03/19 06:47:05;;;;;;;17.48;3.72;;;;;;;;;;5054945;28;20094;-73
2022/03/19 06:49:31;;;;;;;15.95;3.35;;;;;;;;;;5091466;28;20024;-75
2022/03/19 06:51:57;;;;;;;8.93;3.17;;;;;;;;;;5092848;28;20108;-74
2022/03/19 06:54:23;;;;;;;13.82;3.05;;;;;;;;;;5067941;28;20086;-73
2022/03/19 06:56:49;;;;;;;8.65;3.05;;;;;;;;;;5093030;28;20024;-73
2022/03/19 06:59:15;;;;;;;11.65;2.80;;;;;;;;;;5092261;28;20114;-72
2022/03/19 07:01:41;;;;;;;13.80;2.90;;;;;;;;;;5087657;28;20028;-71
2022/03/19 07:04:07;;;;;;;11.27;3.47;;;;;;;;;;5081111;28;20044;-72
2022/03/19 07:06:33;;;;;;;11.20;3.25;;;;;;;;;;5090064;28;20040;-72
2022/03/19 07:08:59;;;;;;;10.90;3.40;;;;;;;;;;5091206;28;20074;-71
2022/03/19 07:11:25;;;;;;;7.70;2.92;;;;;;;;;;5083723;28;20025;-72
2022/03/19 07:13:51;;;;;;;9.95;3.08;;;;;;;;;;5091858;28;20067;-71
2022/03/19 07:16:17;;;;;;;11.07;3.25;;;;;;;;;;5076713;28;20032;-72
2022/03/19 07:18:43;;;;;;;12.10;2.75;;;;;;;;;;5082902;28;20036;-72
2022/03/19 07:21:10;;;;;;;8.23;2.40;;;;;;;;;;5068359;28;20383;-72
2022/03/19 07:23:36;;;;;;;5.55;2.60;;;;;;;;;;5090620;28;20135;-76
2022/03/19 07:26:02;;;;;;;10.43;3.08;;;;;;;;;;5081187;28;20028;-76
2022/03/19 07:28:29;;;;;;;4.80;2.65;;;;;;;;;;5057686;28;20025;-69
2022/03/19 07:30:55;;;;;;;8.65;2.45;;;;;;;;;;5079831;28;20036;-73
2022/03/19 07:33:22;;;;;;;11.93;2.95;;;;;;;;;;5064329;28;20070;-72
2022/03/19 07:35:48;;;;;;;10.23;2.90;;;;;;;;;;5084603;28;20027;-74
2022/03/19 07:38:14;;;;;;;11.38;2.97;;;;;;;;;;5094911;28;20024;-71
2022/03/19 07:43:27;;;;;;;33.17;2.85;;;;;;;;;;5078495;28;20455;-70
2022/03/19 07:45:53;;;;;;;12.80;3.00;;;;;;;;;;5080070;28;20028;-71
2022/03/19 07:48:19;;;;;;;11.82;2.95;;;;;;;;;;5057095;28;20029;-71
2022/03/19 07:50:45;;;;;;;6.63;2.80;;;;;;;;;;5077586;28;20440;-70
2022/03/19 07:53:11;;;;;;;11.88;2.60;;;;;;;;;;5066781;28;20404;-72
2022/03/19 07:55:37;;;;;;;6.35;2.72;;;;;;;;;;5092665;28;20832;-74
2022/03/19 07:58:04;;;;;;;10.13;2.85;;;;;;;;;;5086927;28;20036;-71
2022/03/19 08:00:30;;;;;;;10.63;2.40;;;;;;;;;;5081525;28;20081;-72
2022/03/19 08:02:56;;;;;;;8.13;2.10;;;;;;;;;;5093145;28;20043;-72
2022/03/19 08:05:23;;;;;;;28.58;3.20;;;;;;;;;;5079439;28;20039;-72
2022/03/19 08:07:49;;;;;;;29.67;2.72;;;;;;;;;;5062832;28;20476;-72
2022/03/19 08:10:15;;;;;;;18.88;2.80;;;;;;;;;;5091336;28;20069;-73
2022/03/19 08:12:43;;;;;;;16.05;2.88;;;;;;;;;;5092092;28;20036;-73
2022/03/19 08:15:10;;;;;;;26.50;2.88;;;;;;;;;;5084665;28;20037;-72
2022/03/19 08:17:41;;;;;;;21.85;2.92;;;;;;;;;;5079502;28;20020;-79
2022/03/19 08:20:07;;;;;;;13.05;2.28;;;;;;;;;;5065217;28;20044;-71
2022/03/19 08:22:34;;;;;;;8.52;2.10;;;;;;;;;;5064666;28;20495;-72
2022/03/19 08:25:00;;;;;;;9.40;2.58;;;;;;;;;;5064182;28;20066;-73
2022/03/19 08:27:26;;;;;;;12.18;2.22;;;;;;;;;;5070824;28;20660;-73
2022/03/19 08:29:52;;;;;;;12.48;2.45;;;;;;;;;;5070656;28;20067;-71
2022/03/19 08:32:20;;;;;;;9.43;2.08;;;;;;;;;;5078539;28;20035;-72
2022/03/19 08:34:46;;;;;;;8.05;2.30;;;;;;;;;;5069455;28;20248;-71
2022/03/19 08:37:12;;;;;;;8.82;2.10;;;;;;;;;;5087705;28;20024;-71
2022/03/19 08:42:23;;;;;;;7.90;2.42;;;;;;;;;;5076333;28;20081;-71
2022/03/19 08:44:50;;;;;;;7.88;2.10;;;;;;;;;;5080371;28;20038;-70
2022/03/19 08:47:16;;;;;;;8.48;2.33;;;;;;;;;;5090904;28;20406;-69
2022/03/19 08:49:42;;;;;;;12.10;2.47;;;;;;;;;;5085178;28;20027;-68
2022/03/19 08:52:08;;;;;;;12.75;3.03;;;;;;;;;;5064989;28;20036;-69
2022/03/19 08:54:34;;;;;;;28.13;2.25;;;;;;;;;;5089055;28;20117;-69
2022/03/19 08:57:00;;;;;;;9.85;2.30;;;;;;;;;;5066608;28;20059;-70
2022/03/19 08:59:26;;;;;;;11.15;2.38;;;;;;;;;;5076237;28;20635;-70
2022/03/19 09:01:53;;;;;;;21.70;2.63;;;;;;;;;;5087946;28;20024;-69
2022/03/19 09:04:19;;;;;;;14.15;2.60;;;;;;;;;;5089087;28;20387;-68
2022/03/19 09:06:45;;;;;;;19.75;2.13;;;;;;;;;;5094324;28;20032;-74
2022/03/19 09:09:14;;;;;;;18.15;3.03;;;;;;;;;;5075763;28;20016;-73
2022/03/19 09:11:41;;;;;;;20.23;2.15;;;;;;;;;;5074979;28;20036;-73
2022/03/19 09:14:08;;;;;;;8.55;2.05;;;;;;;;;;5085308;28;20460;-71
2022/03/19 09:16:34;;;;;;;12.20;2.47;;;;;;;;;;5084129;28;20055;-72
2022/03/19 09:19:00;;;;;;;14.18;2.25;;;;;;;;;;5089048;28;20078;-71
2022/03/19 09:21:29;;;;;;;8.65;2.03;;;;;;;;;;5086958;28;20427;-72
2022/03/19 09:23:55;;;;;;;26.80;2.50;;;;;;;;;;5082230;28;20075;-78
2022/03/19 09:26:21;;;;;;;36.40;3.40;;;;;;;;;;5070519;28;20044;-68
2022/03/19 09:28:47;;;;;;;19.35;2.65;;;;;;;;;;5081278;28;20059;-70
2022/03/19 09:31:14;;;;;;;20.13;2.58;;;;;;;;;;5089831;28;20023;-73
2022/03/19 09:33:40;;;;;;;32.15;3.15;;;;;;;;;;5091522;28;20044;-72
2022/03/19 09:36:06;;;;;;;21.52;2.45;;;;;;;;;;5081067;28;20490;-76
2022/03/19 09:38:32;;;;;;;22.45;2.60;;;;;;;;;;5082909;28;20046;-71
2022/03/19 09:40:59;;;;;;;20.65;2.15;;;;;;;;;;5087277;28;20383;-71
2022/03/19 09:43:26;;;;;;;9.85;2.10;;;;;;;;;;5088250;28;20110;-73
2022/03/19 09:45:52;;;;;;;11.13;2.25;;;;;;;;;;5093649;28;20077;-70
2022/03/19 09:48:18;;;;;;;17.92;3.10;;;;;;;;;;5092021;28;20032;-72
2022/03/19 09:50:44;;;;;;;16.88;2.20;;;;;;;;;;5072941;28;20100;-73
2022/03/19 09:53:11;;;;;;;20.33;2.47;;;;;;;;;;5081239;28;20032;-70
2022/03/19 09:55:38;;;;;;;13.45;2.45;;;;;;;;;;5074953;28;20111;-69
2022/03/19 09:58:04;;;;;;;19.08;3.15;;;;;;;;;;5079099;28;20537;-76
2022/03/19 10:00:31;;;;;;;15.15;2.75;;;;;;;;;;5083889;28;20028;-70
2022/03/19 10:02:59;;;;;;;6.30;2.00;;;;;;;;;;5092406;28;20534;-70
2022/03/19 10:10:58;;;;;;;7.65;2.30;;;;;;;;;;5084944;28;20073;-71
2022/03/19 10:13:26;;;;;;;14.93;2.17;;;;;;;;;;5087584;28;20037;-72
2022/03/19 10:15:52;;;;;;;5.57;1.98;;;;;;;;;;5080753;28;20016;-71
2022/03/19 10:18:18;;;;;;;10.07;2.25;;;;;;;;;;5077203;28;20033;-71
2022/03/19 10:20:45;;;;;;;7.35;1.98;;;;;;;;;;5072367;28;20028;-70
2022/03/19 10:23:11;;;;;;;6.53;1.90;;;;;;;;;;5061373;28;20052;-74
2022/03/19 10:25:37;;;;;;;5.00;1.77;;;;;;;;;;5068899;28;20403;-70
2022/03/19 10:28:09;;;;;;;5.18;1.63;;;;;;;;;;5078596;28;20143;-71
2022/03/19 10:30:39;;;;;;;4.88;1.60;;;;;;;;;;5082589;28;20043;-70
2022/03/19 10:33:07;;;;;;;5.00;1.63;;;;;;;;;;5073993;28;20029;-71
2022/03/19 10:35:34;;;;;;;6.32;1.65;;;;;;;;;;5062359;28;20024;-72
2022/03/19 10:38:05;;;;;;;6.68;1.63;;;;;;;;;;5081283;28;20031;-74
2022/03/19 10:40:39;;;;;;;2.67;1.25;;;;;;;;;;5065395;28;20475;-72
2022/03/19 10:43:06;;;;;;;3.92;1.63;;;;;;;;;;5085457;28;20028;-76
2022/03/19 10:45:32;;;;;;;6.30;1.70;;;;;;;;;;5056885;28;20028;-74
2022/03/19 10:48:01;;;;;;;6.68;1.38;;;;;;;;;;5059600;28;20051;-73
2022/03/19 10:50:27;;;;;;;4.75;1.52;;;;;;;;;;5065953;28;20036;-73
2022/03/19 10:52:54;;;;;;;3.60;1.50;;;;;;;;;;5060384;28;20390;-75
2022/03/19 10:55:21;;;;;;;4.88;1.38;;;;;;;;;;5084922;28;20467;-70
2022/03/19 10:57:47;;;;;;;5.18;1.52;;;;;;;;;;5062124;28;20031;-74
2022/03/19 11:00:13;;;;;;;3.47;1.20;;;;;;;;;;5059086;28;20082;-71
2022/03/19 11:02:48;;;;;;;2.75;1.10;;;;;;;;;;5083292;28;20032;-71
2022/03/19 11:05:17;;;;;;;5.32;1.42;;;;;;;;;;5085318;28;20024;-75
2022/03/19 11:07:44;;;;;;;2.42;1.20;;;;;;;;;;5086038;28;20028;-78
2022/03/19 11:10:11;;;;;;;4.18;1.30;;;;;;;;;;5092673;28;20024;-70
2022/03/19 11:12:40;;;;;;;6.43;1.45;;;;;;;;;;5074686;28;20111;-71
2022/03/19 11:15:09;;;;;;;6.40;1.60;;;;;;;;;;5092614;28;20420;-73
2022/03/19 11:17:36;;;;;;;5.10;1.30;;;;;;;;;;5096114;28;20535;-70
2022/03/19 11:20:05;;;;;;;2.92;1.23;;;;;;;;;;5096163;28;20111;-72
2022/03/19 11:22:41;;;;;;;3.50;1.55;;;;;;;;;;5082997;28;20048;-73
2022/03/19 11:25:25;;;;;;;3.95;1.20;;;;;;;;;;5064154;28;20040;-73
2022/03/19 11:27:52;;;;;;;3.55;1.10;;;;;;;;;;5076908;28;20028;-74
2022/03/19 11:30:23;;;;;;;3.30;1.40;;;;;;;;;;5091084;28;20020;-73
2022/03/19 11:33:07;;;;;;;3.97;1.20;;;;;;;;;;5080974;28;20042;-75
2022/03/19 11:35:34;;;;;;;3.17;1.33;;;;;;;;;;5074237;28;20024;-71
2022/03/19 11:38:16;;;;;;;3.10;1.17;;;;;;;;;;5081303;28;20030;-73
2022/03/19 11:40:45;;;;;;;4.65;1.20;;;;;;;;;;5086660;28;20395;-75
2022/03/19 11:43:12;;;;;;;3.08;1.20;;;;;;;;;;5064637;28;20036;-74
2022/03/19 11:45:59;;;;;;;5.32;1.40;;;;;;;;;;5092470;28;20020;-73
2022/03/19 11:48:47;;;;;;;3.30;1.10;;;;;;;;;;5083633;28;20020;-75
2022/03/19 11:51:15;;;;;;;2.67;1.00;;;;;;;;;;5075005;28;20021;-71
2022/03/19 11:53:53;;;;;;;2.25;1.10;;;;;;;;;;5086771;28;20032;-74
2022/03/19 11:56:19;;;;;;;3.05;1.30;;;;;;;;;;5072753;28;20024;-73
2022/03/19 11:58:46;;;;;;;2.22;1.02;;;;;;;;;;5089256;28;20028;-74
2022/03/19 12:01:12;;;;;;;2.78;1.00;;;;;;;;;;5071211;28;20070;-71
2022/03/19 12:03:57;;;;;;;3.03;1.17;;;;;;;;;;5084141;28;20126;-74
2022/03/19 12:06:33;;;;;;;3.50;1.20;;;;;;;;;;5077021;28;20021;-72
2022/03/19 12:08:59;;;;;;;2.17;1.10;;;;;;;;;;5094864;28;20020;-74
2022/03/19 12:11:25;;;;;;;2.75;1.00;;;;;;;;;;5095306;28;20081;-74
2022/03/19 12:13:52;;;;;;;3.40;1.15;;;;;;;;;;5092934;28;20036;-76
2022/03/19 12:16:37;;;;;;;2.90;1.20;;;;;;;;;;5080044;28;20024;-74
2022/03/19 12:19:03;;;;;;;2.17;1.00;;;;;;;;;;5085896;28;20449;-76
2022/03/19 12:21:34;;;;;;;3.30;0.95;;;;;;;;;;5095306;28;20045;-73
2022/03/19 12:24:02;;;;;;;5.07;1.10;;;;;;;;;;5076098;28;20052;-70
2022/03/19 12:26:36;;;;;;;3.20;1.00;;;;;;;;;;5065484;28;20033;-72
2022/03/19 12:29:03;;;;;;;3.45;1.05;;;;;;;;;;5090302;28;20028;-74
2022/03/19 12:31:31;;;;;;;5.55;1.10;;;;;;;;;;5073879;28;20029;-71
2022/03/19 12:33:57;;;;;;;12.90;1.35;;;;;;;;;;5091216;28;20028;-71
2022/03/19 12:36:23;;;;;;;6.78;0.80;;;;;;;;;;5076309;28;20447;-71
2022/03/19 12:38:50;;;;;;;4.10;1.15;;;;;;;;;;5075345;28;20161;-70
2022/03/19 12:41:24;;;;;;;6.20;1.48;;;;;;;;;;5059777;28;20020;-70
2022/03/19 12:43:51;;;;;;;11.80;1.38;;;;;;;;;;5078861;28;20032;-71
2022/03/19 12:46:24;;;;;;;12.07;0.93;;;;;;;;;;5068407;28;20436;-70
2022/03/19 12:48:51;;;;;;;2.55;1.10;;;;;;;;;;5066389;28;20058;-73
2022/03/19 12:51:26;;;;;;;3.67;0.95;;;;;;;;;;5059660;28;20484;-75
2022/03/19 12:53:52;;;;;;;7.75;1.15;;;;;;;;;;5080033;28;20036;-74
2022/03/19 12:56:23;;;;;;;3.05;0.98;;;;;;;;;;5061260;28;20020;-72
2022/03/19 12:58:51;;;;;;;2.70;1.00;;;;;;;;;;5087091;28;20169;-72
2022/03/19 13:01:21;;;;;;;5.05;0.90;;;;;;;;;;5094092;28;20474;-73
2022/03/19 13:03:47;;;;;;;7.38;1.00;;;;;;;;;;5068937;28;20050;-72
2022/03/19 13:06:19;;;;;;;3.33;0.88;;;;;;;;;;5094486;28;20035;-71
2022/03/19 13:08:45;;;;;;;3.80;1.10;;;;;;;;;;5075579;28;20051;-71
2022/03/19 13:11:14;;;;;;;4.40;1.13;;;;;;;;;;5094449;28;20034;-71
2022/03/19 13:13:41;;;;;;;6.15;1.23;;;;;;;;;;5087498;28;20036;-73
2022/03/19 13:16:07;;;;;;;3.22;1.10;;;;;;;;;;5063486;28;20020;-71
2022/03/19 13:18:37;;;;;;;2.03;0.80;;;;;;;;;;5074663;28;20043;-71
2022/03/19 13:21:08;;;;;;;4.35;1.00;;;;;;;;;;5086375;28;20103;-71
2022/03/19 13:23:35;;;;;;;2.50;0.70;;;;;;;;;;5088181;28;20407;-71
2022/03/19 13:26:02;;;;;;;2.00;0.70;;;;;;;;;;5072626;28;20048;-72
2022/03/19 13:28:28;;;;;;;3.33;0.90;;;;;;;;;;5079230;28;20157;-72
2022/03/19 13:30:58;;;;;;;3.58;0.80;;;;;;;;;;5073384;28;20415;-75
2022/03/19 13:33:26;;;;;;;1.70;0.70;;;;;;;;;;5084598;28;20048;-77
2022/03/19 13:35:52;;;;;;;1.92;0.93;;;;;;;;;;5080285;28;20032;-70
2022/03/19 13:38:23;;;;;;;1.30;0.70;;;;;;;;;;5072047;28;20035;-71
2022/03/19 13:40:52;;;;;;;4.70;0.98;;;;;;;;;;5085280;28;20036;-69
2022/03/19 13:43:19;;;;;;;0.93;0.60;;;;;;;;;;5069145;28;20028;-73
2022/03/19 13:45:45;;;;;;;2.40;0.70;;;;;;;;;;5066317;28;20646;-71
2022/03/19 13:48:11;;;;;;;2.45;0.85;;;;;;;;;;5062496;28;20055;-73
2022/03/19 13:50:43;;;;;;;2.75;0.75;;;;;;;;;;5067870;28;20055;-70
2022/03/19 13:53:10;;;;;;;1.30;0.70;;;;;;;;;;5067228;28;20032;-76
2022/03/19 13:55:37;;;;;;;2.50;0.70;;;;;;;;;;5066810;28;20137;-70
2022/03/19 13:58:08;;;;;;;1.30;0.70;;;;;;;;;;5082465;28;20024;-75
2022/03/19 14:00:39;;;;;;;0.95;0.60;;;;;;;;;;5074668;28;20028;-73
2022/03/19 14:03:06;;;;;;;1.73;0.60;;;;;;;;;;5067805;28;20035;-72
2022/03/19 14:05:32;;;;;;;1.23;0.80;;;;;;;;;;5079597;28;20818;-70
2022/03/19 14:08:01;;;;;;;1.88;0.60;;;;;;;;;;5082722;28;20032;-69
2022/03/19 14:10:37;;;;;;;1.08;0.70;;;;;;;;;;5091369;28;20141;-70
2022/03/19 14:15:53;;;;;;;0.80;0.50;;;;;;;;;;5218421;23;20054;-72
2022/03/19 14:18:23;;;;;;;1.30;0.70;;;;;;;;;;4969644;28;20046;-71
2022/03/19 14:20:49;;;;;;;1.30;0.70;;;;;;;;;;4971959;28;20058;-69
2022/03/19 14:23:16;;;;;;;2.25;0.70;;;;;;;;;;4971371;28;20019;-70
2022/03/19 14:25:43;;;;;;;7.55;0.90;;;;;;;;;;4965043;28;20033;-68
2022/03/19 14:28:10;;;;;;;4.82;0.82;;;;;;;;;;4965826;28;20022;-76
2022/03/19 14:30:36;;;;;;;5.95;0.88;;;;;;;;;;4983122;28;20484;-69
2022/03/19 14:33:03;;;;;;;2.85;0.70;;;;;;;;;;4968067;28;20041;-69
2022/03/19 14:35:42;;;;;;;2.85;0.80;;;;;;;;;;4971019;28;20039;-72
2022/03/19 14:38:08;;;;;;;5.30;0.80;;;;;;;;;;4966810;28;20096;-69
2022/03/19 14:40:34;;;;;;;7.07;0.75;;;;;;;;;;4979752;28;20037;-68
2022/03/19 14:43:00;;;;;;;3.03;0.70;;;;;;;;;;4983271;28;20343;-76
2022/03/19 14:45:26;;;;;;;3.60;0.88;;;;;;;;;;4975254;28;20026;-75
2022/03/19 14:47:52;;;;;;;7.68;0.88;;;;;;;;;;4986223;28;20039;-76
2022/03/19 14:50:18;;;;;;;3.65;0.70;;;;;;;;;;4946660;29;20428;-74
2022/03/19 14:52:44;;;;;;;3.53;0.90;;;;;;;;;;4937412;29;20035;-69
2022/03/19 14:55:10;;;;;;;1.75;0.82;;;;;;;;;;4953943;28;20092;-69
2022/03/19 14:57:36;;;;;;;7.50;1.10;;;;;;;;;;4957037;28;20027;-76
2022/03/19 15:00:04;;;;;;;44.13;2.33;;;;;;;;;;4953793;28;20071;-69
2022/03/19 15:02:30;;;;;;;26.95;1.02;;;;;;;;;;4947952;29;20076;-70